createdAt,value
2022-11-22T00:00:47.123Z,98.84
2022-11-22T00:01:51.193Z,99.06
2022-11-22T00:02:58.454Z,99.10
2022-11-22T00:04:04.181Z,98.79
2022-11-22T00:05:18.866Z,98.87
2022-11-22T00:06:23.675Z,99.02
2022-11-22T00:07:34.601Z,99.00
2022-11-22T00:08:38.412Z,99.20
2022-11-22T00:09:41.947Z,99.27
2022-11-22T00:10:59.830Z,99.20
2022-11-22T00:12:04.747Z,99.29
2022-11-22T00:13:10.537Z,99.32
2022-11-22T00:14:14.486Z,99.21
2022-11-22T00:15:19.223Z,99.25
2022-11-22T00:16:23.111Z,99.27
2022-11-22T00:17:32.396Z,99.20
2022-11-22T00:18:36.980Z,98.91
2022-11-22T00:19:40.570Z,98.83
2022-11-22T00:20:48.230Z,98.66
2022-11-22T00:21:54.673Z,98.76
2022-11-22T00:23:00.395Z,98.51
2022-11-22T00:24:08.389Z,98.91
2022-11-22T00:25:17.052Z,99.17
2022-11-22T00:26:25.630Z,99.16
2022-11-22T00:27:34.368Z,99.16
2022-11-22T00:28:39.961Z,98.82
2022-11-22T00:29:44.823Z,98.58
2022-11-22T00:30:53.700Z,98.92
2022-11-22T00:32:00.870Z,98.58
2022-11-22T00:33:05.800Z,99.18
2022-11-22T00:34:15.067Z,99.11
2022-11-22T00:35:21.287Z,99.47
2022-11-22T00:36:28.175Z,99.44
2022-11-22T00:37:32.090Z,99.47
2022-11-22T00:39:58.989Z,99.27
2022-11-22T00:41:03.698Z,98.80
2022-11-22T00:42:13.079Z,99.21
2022-11-22T00:43:23.611Z,98.93
2022-11-22T00:44:34.476Z,99.02
2022-11-22T00:45:42.171Z,99.26
2022-11-22T00:46:45.663Z,99.23
2022-11-22T00:47:56.832Z,99.42
2022-11-22T00:49:00.288Z,99.26
2022-11-22T00:50:11.482Z,99.25
2022-11-22T00:51:19.395Z,99.30
2022-11-22T00:52:24.581Z,99.45
2022-11-22T00:53:31.138Z,99.30
2022-11-22T00:54:35.469Z,99.29
2022-11-22T00:57:10.640Z,99.08
2022-11-22T00:58:16.344Z,99.22
2022-11-22T00:59:23.366Z,98.93
2022-11-22T01:00:30.976Z,99.14
2022-11-22T01:01:41.597Z,99.11
2022-11-22T01:02:56.541Z,99.00
2022-11-22T01:04:08.281Z,99.11
2022-11-22T01:05:18.939Z,99.22
2022-11-22T01:06:34.096Z,99.46
2022-11-22T01:07:41.325Z,99.41
2022-11-22T01:08:46.621Z,99.57
2022-11-22T01:09:52.123Z,99.17
2022-11-22T01:11:00.841Z,99.26
2022-11-22T01:12:20.842Z,99.40
2022-11-22T01:13:29.984Z,99.19
2022-11-22T01:14:35.577Z,99.36
2022-11-22T01:15:41.567Z,99.30
2022-11-22T01:16:52.198Z,99.31
2022-11-22T01:17:59.627Z,99.28
2022-11-22T01:19:04.085Z,99.14
2022-11-22T01:20:15.839Z,99.23
2022-11-22T01:21:19.262Z,99.28
2022-11-22T01:22:32.755Z,99.36
2022-11-22T01:23:41.384Z,99.11
2022-11-22T01:24:50.233Z,99.56
2022-11-22T01:26:23.386Z,99.68
2022-11-22T01:27:30.264Z,99.29
2022-11-22T01:28:38.344Z,99.09
2022-11-22T01:29:42.367Z,99.49
2022-11-22T01:31:06.766Z,99.24
2022-11-22T01:32:11.137Z,99.08
2022-11-22T01:33:18.518Z,99.24
2022-11-22T01:34:22.633Z,99.29
2022-11-22T01:35:27.363Z,99.22
2022-11-22T01:36:32.278Z,99.22
2022-11-22T01:37:41.248Z,98.87
2022-11-22T01:39:09.319Z,99.22
2022-11-22T01:40:14.656Z,99.11
2022-11-22T01:41:18.418Z,99.11
2022-11-22T01:42:22.947Z,98.87
2022-11-22T01:43:30.369Z,98.94
2022-11-22T01:44:35.297Z,98.55
2022-11-22T01:45:53.818Z,98.96
2022-11-22T01:47:17.394Z,98.86
2022-11-22T01:48:50.793Z,98.74
2022-11-22T01:50:07.385Z,98.76
2022-11-22T01:51:39.848Z,98.73
2022-11-22T01:52:44.823Z,98.76
2022-11-22T01:54:14.884Z,98.70
2022-11-22T01:55:22.108Z,98.66
2022-11-22T01:56:36.406Z,98.83
2022-11-22T01:57:44.728Z,98.47
2022-11-22T01:58:55.971Z,98.70
2022-11-22T02:00:12.838Z,98.36
2022-11-22T02:02:58.034Z,98.43
2022-11-22T02:04:09.763Z,98.41
2022-11-22T02:05:19.204Z,98.35
2022-11-22T02:06:31.743Z,98.05
2022-11-22T02:08:03.521Z,97.78
2022-11-22T02:09:13.355Z,97.92
2022-11-22T02:10:21.101Z,98.25
2022-11-22T02:11:29.687Z,98.05
2022-11-22T02:12:40.469Z,98.11
2022-11-22T02:13:53.694Z,98.29
2022-11-22T02:15:01.676Z,98.21
2022-11-22T02:16:15.249Z,98.05
2022-11-22T02:17:20.956Z,97.86
2022-11-22T02:18:28.779Z,98.10
2022-11-22T02:19:52.220Z,98.21
2022-11-22T02:20:59.351Z,98.34
2022-11-22T02:22:36.537Z,98.87
2022-11-22T02:24:09.986Z,98.82
2022-11-22T02:25:26.205Z,98.79
2022-11-22T02:26:32.612Z,98.82
2022-11-22T02:27:39.495Z,98.62
2022-11-22T02:28:44.681Z,98.38
2022-11-22T02:29:48.938Z,98.53
2022-11-22T02:30:59.931Z,98.57
2022-11-22T02:32:04.138Z,98.56
2022-11-22T02:33:13.924Z,98.49
2022-11-22T02:34:26.970Z,98.54
2022-11-22T02:35:44.392Z,98.42
2022-11-22T02:36:58.309Z,98.71
2022-11-22T02:38:17.041Z,98.69
2022-11-22T02:39:33.079Z,98.82
2022-11-22T02:40:58.123Z,98.95
2022-11-22T02:42:25.486Z,99.19
2022-11-22T02:43:45.431Z,99.46
2022-11-22T02:45:14.786Z,99.30
2022-11-22T02:46:27.907Z,99.32
2022-11-22T02:47:42.127Z,99.00
2022-11-22T02:48:49.455Z,99.42
2022-11-22T02:50:05.939Z,99.55
2022-11-22T02:51:21.430Z,99.37
2022-11-22T02:52:26.878Z,99.18
2022-11-22T02:53:34.064Z,99.21
2022-11-22T02:54:43.540Z,99.41
2022-11-22T02:55:51.052Z,99.69
2022-11-22T02:56:57.459Z,99.70
2022-11-22T02:58:06.639Z,99.88
2022-11-22T02:59:18.896Z,99.79
2022-11-22T03:00:30.908Z,100.00
2022-11-22T03:01:41.791Z,100.00
2022-11-22T03:02:48.280Z,100.00
2022-11-22T03:03:53.566Z,100.00
2022-11-22T03:05:00.135Z,100.00
2022-11-22T03:06:14.777Z,100.00
2022-11-22T03:07:27.142Z,100.00
2022-11-22T03:08:33.445Z,100.00
2022-11-22T03:09:39.709Z,100.00
2022-11-22T03:10:47.668Z,100.00
2022-11-22T03:11:57.559Z,100.00
2022-11-22T03:13:11.397Z,100.00
2022-11-22T03:14:16.680Z,100.00
2022-11-22T03:15:20.682Z,100.00
2022-11-22T03:16:27.847Z,100.00
2022-11-22T03:17:31.657Z,100.00
2022-11-22T03:18:37.280Z,100.00
2022-11-22T03:19:40.779Z,100.00
2022-11-22T03:20:44.670Z,100.00
2022-11-22T03:21:48.734Z,100.00
2022-11-22T03:22:53.096Z,100.00
2022-11-22T03:23:56.930Z,100.00
2022-11-22T03:25:00.928Z,100.00
2022-11-22T03:26:12.612Z,100.00
2022-11-22T03:27:16.643Z,100.00
2022-11-22T03:28:21.490Z,100.00
2022-11-22T03:29:25.551Z,100.00
2022-11-22T03:30:29.344Z,100.00
2022-11-22T03:31:33.207Z,100.00
2022-11-22T03:32:36.903Z,100.00
2022-11-22T03:33:40.888Z,100.00
2022-11-22T03:34:44.954Z,100.00
2022-11-22T03:35:48.386Z,100.00
2022-11-22T03:36:51.832Z,100.00
2022-11-22T03:37:55.377Z,100.00
2022-11-22T03:39:00.181Z,100.00
2022-11-22T03:40:12.535Z,100.00
2022-11-22T03:41:16.378Z,100.00
2022-11-22T03:42:22.076Z,100.00
2022-11-22T03:43:26.513Z,100.00
2022-11-22T03:44:31.085Z,100.00
2022-11-22T03:45:35.330Z,100.00
2022-11-22T03:46:39.169Z,100.00
2022-11-22T03:47:42.830Z,100.00
2022-11-22T03:48:48.587Z,100.00
2022-11-22T03:49:52.511Z,100.00
2022-11-22T03:51:09.301Z,100.00
2022-11-22T03:52:13.301Z,100.00
2022-11-22T03:53:16.895Z,100.00
2022-11-22T03:54:20.490Z,100.00
2022-11-22T03:55:24.375Z,100.00
2022-11-22T03:56:28.192Z,100.00
2022-11-22T03:57:31.726Z,100.00
2022-11-22T03:58:35.531Z,100.00
2022-11-22T03:59:39.366Z,100.00
2022-11-22T04:00:43.316Z,100.00
2022-11-22T04:01:47.094Z,100.00
2022-11-22T04:02:51.285Z,100.00
2022-11-22T04:03:55.179Z,100.00
2022-11-22T04:04:59.900Z,100.00
2022-11-22T04:06:03.664Z,100.00
2022-11-22T04:07:10.586Z,100.00
2022-11-22T04:08:14.705Z,100.00
2022-11-22T04:09:18.356Z,100.00
2022-11-22T04:10:26.428Z,100.00
2022-11-22T04:11:30.422Z,100.00
2022-11-22T04:12:35.036Z,100.00
2022-11-22T04:13:57.474Z,100.00
2022-11-22T04:15:08.295Z,100.00
2022-11-22T04:16:11.891Z,100.00
2022-11-22T04:17:35.936Z,100.00
2022-11-22T04:18:39.351Z,100.00
2022-11-22T04:20:02.705Z,100.00
2022-11-22T04:21:30.920Z,100.00
2022-11-22T04:22:34.369Z,100.00
2022-11-22T04:23:38.662Z,100.00
2022-11-22T04:25:01.107Z,100.00
2022-11-22T04:26:04.746Z,100.00
2022-11-22T04:27:09.981Z,100.00
2022-11-22T04:28:19.411Z,100.00
2022-11-22T04:29:25.470Z,100.00
2022-11-22T04:30:48.494Z,100.00
2022-11-22T04:32:10.801Z,100.00
2022-11-22T04:33:16.417Z,100.00
2022-11-22T04:34:19.946Z,100.00
2022-11-22T04:35:24.035Z,100.00
2022-11-22T04:36:28.381Z,100.00
2022-11-22T04:37:31.924Z,100.00
2022-11-22T04:38:36.065Z,100.00
2022-11-22T04:39:40.981Z,100.00
2022-11-22T04:40:46.092Z,100.00
2022-11-22T04:42:13.262Z,100.00
2022-11-22T04:43:49.106Z,100.00
2022-11-22T04:44:59.033Z,100.00
2022-11-22T04:46:03.287Z,100.00
2022-11-22T04:47:09.260Z,100.00
2022-11-22T04:48:13.004Z,100.00
2022-11-22T04:49:16.395Z,100.00
2022-11-22T04:50:38.973Z,100.00
2022-11-22T04:52:02.243Z,100.00
2022-11-22T04:53:06.327Z,100.00
2022-11-22T04:54:10.978Z,100.00
2022-11-22T04:55:14.739Z,100.00
2022-11-22T04:56:18.989Z,100.00
2022-11-22T04:57:23.042Z,100.00
2022-11-22T04:58:27.991Z,100.00
2022-11-22T04:59:33.901Z,100.00
2022-11-22T05:00:38.091Z,100.00
2022-11-22T05:01:42.117Z,100.00
2022-11-22T05:02:46.673Z,100.00
2022-11-22T05:03:50.827Z,100.00
2022-11-22T05:04:54.324Z,100.00
2022-11-22T05:06:02.957Z,100.00
2022-11-22T05:07:11.600Z,100.00
2022-11-22T05:08:15.718Z,100.00
2022-11-22T05:09:19.673Z,100.00
2022-11-22T05:10:26.860Z,100.00
2022-11-22T05:11:30.786Z,100.00
2022-11-22T05:12:34.544Z,100.00
2022-11-22T05:13:42.441Z,100.00
2022-11-22T05:14:46.953Z,100.00
2022-11-22T05:15:54.222Z,100.00
2022-11-22T05:16:58.173Z,100.00
2022-11-22T05:18:01.700Z,100.00
2022-11-22T05:19:10.633Z,100.00
2022-11-22T05:20:15.304Z,100.00
2022-11-22T05:21:18.829Z,100.00
2022-11-22T05:22:42.695Z,100.00
2022-11-22T05:23:55.440Z,100.00
2022-11-22T05:24:59.243Z,100.00
2022-11-22T05:26:03.229Z,100.00
2022-11-22T05:27:10.487Z,100.00
2022-11-22T05:28:14.188Z,100.00
2022-11-22T05:29:17.934Z,100.00
2022-11-22T05:30:21.755Z,100.00
2022-11-22T05:31:27.761Z,100.00
2022-11-22T05:32:32.811Z,100.00
2022-11-22T05:33:44.748Z,100.00
2022-11-22T05:34:48.222Z,100.00
2022-11-22T05:35:52.157Z,100.00
2022-11-22T05:36:56.041Z,100.00
2022-11-22T05:38:01.153Z,100.00
2022-11-22T05:39:05.128Z,100.00
2022-11-22T05:40:10.510Z,100.00
2022-11-22T05:41:16.762Z,100.00
2022-11-22T05:42:21.336Z,100.00
2022-11-22T05:43:25.314Z,100.00
2022-11-22T05:44:28.902Z,100.00
2022-11-22T05:45:35.055Z,100.00
2022-11-22T05:46:38.910Z,100.00
2022-11-22T05:47:43.217Z,100.00
2022-11-22T05:48:48.861Z,100.00
2022-11-22T05:49:52.641Z,100.00
2022-11-22T05:50:57.203Z,100.00
2022-11-22T05:52:01.210Z,100.00
2022-11-22T05:53:04.915Z,100.00
2022-11-22T05:54:12.910Z,100.00
2022-11-22T05:55:16.707Z,100.00
2022-11-22T05:56:24.330Z,100.00
2022-11-22T05:57:28.676Z,100.00
2022-11-22T05:58:32.402Z,100.00
2022-11-22T05:59:39.835Z,100.00
2022-11-22T06:00:46.662Z,100.00
2022-11-22T06:01:50.349Z,100.00
2022-11-22T06:02:53.967Z,100.00
2022-11-22T06:03:58.171Z,100.00
2022-11-22T06:05:01.846Z,100.00
2022-11-22T06:06:08.126Z,100.00
2022-11-22T06:07:11.913Z,100.00
2022-11-22T06:08:15.756Z,100.00
2022-11-22T06:09:19.448Z,100.00
2022-11-22T06:10:23.144Z,100.00
2022-11-22T06:11:28.412Z,100.00
2022-11-22T06:12:32.090Z,100.00
2022-11-22T06:13:42.109Z,100.00
2022-11-22T06:14:46.310Z,100.00
2022-11-22T06:15:49.802Z,100.00
2022-11-22T06:16:53.500Z,100.00
2022-11-22T06:17:57.220Z,100.00
2022-11-22T06:19:00.988Z,100.00
2022-11-22T06:20:06.833Z,100.00
2022-11-22T06:21:18.975Z,100.00
2022-11-22T06:22:22.508Z,100.00
2022-11-22T06:23:26.529Z,100.00
2022-11-22T06:24:30.206Z,100.00
2022-11-22T06:25:34.407Z,100.00
2022-11-22T06:26:39.549Z,100.00
2022-11-22T06:27:43.300Z,100.00
2022-11-22T06:28:48.950Z,100.00
2022-11-22T06:29:53.404Z,100.00
2022-11-22T06:31:11.999Z,100.00
2022-11-22T06:32:18.047Z,100.00
2022-11-22T06:33:25.508Z,100.00
2022-11-22T06:34:29.566Z,100.00
2022-11-22T06:35:33.670Z,100.00
2022-11-22T06:36:39.816Z,100.00
2022-11-22T06:37:44.394Z,100.00
2022-11-22T06:38:49.345Z,100.00
2022-11-22T06:39:53.065Z,100.00
2022-11-22T06:41:13.430Z,100.00
2022-11-22T06:42:17.701Z,100.00
2022-11-22T06:43:49.812Z,100.00
2022-11-22T06:44:58.696Z,100.00
2022-11-22T06:46:06.157Z,100.00
2022-11-22T06:47:10.624Z,100.00
2022-11-22T06:48:14.256Z,100.00
2022-11-22T06:49:18.067Z,100.00
2022-11-22T06:50:22.192Z,100.00
2022-11-22T06:51:38.231Z,100.00
2022-11-22T06:52:42.607Z,100.00
2022-11-22T06:53:48.800Z,100.00
2022-11-22T06:54:53.314Z,100.00
2022-11-22T06:56:17.391Z,100.00
2022-11-22T06:57:22.338Z,100.00
2022-11-22T06:58:27.016Z,100.00
2022-11-22T06:59:41.974Z,100.00
2022-11-22T07:00:46.233Z,100.00
2022-11-22T07:01:50.790Z,100.00
2022-11-22T07:03:03.045Z,100.00
2022-11-22T07:04:24.254Z,100.00
2022-11-22T07:05:29.468Z,100.00
2022-11-22T07:06:38.973Z,100.00
2022-11-22T07:07:42.766Z,100.00
2022-11-22T07:08:52.561Z,100.00
2022-11-22T07:10:10.332Z,100.00
2022-11-22T07:11:26.358Z,100.00
2022-11-22T07:12:30.083Z,100.00
2022-11-22T07:13:35.561Z,100.00
2022-11-22T07:14:43.151Z,100.00
2022-11-22T07:15:59.149Z,100.00
2022-11-22T07:17:03.281Z,100.00
2022-11-22T07:18:10.836Z,100.00
2022-11-22T07:19:20.936Z,100.00
2022-11-22T07:20:24.472Z,100.00
2022-11-22T07:21:28.913Z,100.00
2022-11-22T07:22:33.027Z,100.00
2022-11-22T07:23:42.555Z,100.00
2022-11-22T07:24:47.706Z,100.00
2022-11-22T07:25:52.730Z,100.00
2022-11-22T07:26:56.670Z,100.00
2022-11-22T07:28:00.725Z,100.00
2022-11-22T07:29:08.771Z,100.00
2022-11-22T07:30:13.428Z,100.00
2022-11-22T07:31:18.655Z,100.00
2022-11-22T07:32:22.535Z,100.00
2022-11-22T07:33:27.113Z,100.00
2022-11-22T07:34:30.912Z,100.00
2022-11-22T07:35:36.290Z,100.00
2022-11-22T07:36:40.444Z,100.00
2022-11-22T07:37:44.930Z,100.00
2022-11-22T07:38:49.981Z,100.00
2022-11-22T07:40:00.278Z,100.00
2022-11-22T07:41:06.107Z,100.00
2022-11-22T07:42:10.773Z,100.00
2022-11-22T07:43:15.389Z,100.00
2022-11-22T07:44:19.301Z,100.00
2022-11-22T07:45:23.635Z,100.00
2022-11-22T07:46:31.857Z,100.00
2022-11-22T07:47:35.632Z,100.00
2022-11-22T07:48:39.547Z,100.00
2022-11-22T07:49:43.520Z,100.00
2022-11-22T07:50:47.165Z,100.00
2022-11-22T07:51:51.102Z,100.00
2022-11-22T07:53:01.623Z,100.00
2022-11-22T07:54:23.098Z,100.00
2022-11-22T07:55:28.906Z,100.00
2022-11-22T07:56:38.430Z,100.00
2022-11-22T07:58:14.414Z,100.00
2022-11-22T07:59:19.230Z,100.00
2022-11-22T08:00:23.779Z,100.00
2022-11-22T08:01:27.763Z,100.00
2022-11-22T08:02:34.754Z,100.00
2022-11-22T08:03:40.356Z,100.00
2022-11-22T08:04:44.656Z,100.00
2022-11-22T08:05:52.491Z,100.00
2022-11-22T08:07:11.319Z,99.71
2022-11-22T08:08:23.456Z,99.29
2022-11-22T08:09:29.761Z,98.46
2022-11-22T08:10:35.663Z,99.46
2022-11-22T08:11:39.729Z,98.32
2022-11-22T08:12:44.863Z,97.61
2022-11-22T08:13:49.179Z,96.90
2022-11-22T08:14:52.804Z,95.04
2022-11-22T08:16:13.454Z,92.58
2022-11-22T08:17:16.960Z,89.28
2022-11-22T08:18:21.409Z,87.04
2022-11-22T08:19:25.258Z,85.21
2022-11-22T08:20:28.804Z,84.02
2022-11-22T08:21:37.155Z,84.16
2022-11-22T08:22:53.477Z,83.69
2022-11-22T08:24:14.864Z,85.65
2022-11-22T08:25:37.356Z,86.44
2022-11-22T08:26:45.617Z,87.66
2022-11-22T08:27:50.201Z,87.62
2022-11-22T08:28:57.167Z,89.04
2022-11-22T08:30:07.648Z,90.54
2022-11-22T08:31:20.542Z,90.66
2022-11-22T08:32:35.309Z,88.72
2022-11-22T08:33:42.849Z,88.87
2022-11-22T08:34:51.077Z,87.46
2022-11-22T08:35:56.173Z,82.78
2022-11-22T08:37:03.383Z,82.03
2022-11-22T08:38:07.816Z,80.31
2022-11-22T08:39:16.713Z,79.72
2022-11-22T08:40:20.837Z,77.15
2022-11-22T08:41:25.248Z,77.21
2022-11-22T08:42:29.207Z,74.49
2022-11-22T08:43:47.241Z,73.33
2022-11-22T08:45:07.130Z,69.49
2022-11-22T08:46:12.112Z,67.73
2022-11-22T08:47:19.800Z,66.49
2022-11-22T08:48:27.976Z,64.95
2022-11-22T08:49:36.247Z,61.99
2022-11-22T08:50:57.871Z,60.44
2022-11-22T08:52:16.209Z,59.79
2022-11-22T08:53:29.656Z,58.71
2022-11-22T08:54:39.666Z,56.94
2022-11-22T08:55:50.737Z,55.55
2022-11-22T08:56:57.690Z,54.58
2022-11-22T08:58:03.974Z,53.48
2022-11-22T08:59:19.391Z,52.98
2022-11-22T09:00:33.149Z,51.68
2022-11-22T09:01:37.591Z,51.41
2022-11-22T09:02:41.178Z,49.16
2022-11-22T09:03:56.668Z,49.94
2022-11-22T09:05:04.949Z,50.24
2022-11-22T09:10:45.819Z,54.93
2022-11-22T09:11:53.968Z,55.51
2022-11-22T09:13:06.050Z,56.48
2022-11-22T09:14:11.594Z,57.78
2022-11-22T09:15:16.420Z,59.12
2022-11-22T09:16:23.596Z,59.73
2022-11-22T09:17:27.421Z,60.74
2022-11-22T09:18:39.815Z,61.87
2022-11-22T09:19:46.998Z,62.04
2022-11-22T09:21:01.045Z,62.78
2022-11-22T09:22:08.253Z,63.60
2022-11-22T09:23:17.791Z,63.54
2022-11-22T09:24:25.515Z,64.48
2022-11-22T09:25:36.453Z,65.72
2022-11-22T09:26:40.394Z,66.69
2022-11-22T09:27:45.646Z,67.56
2022-11-22T09:28:51.641Z,67.88
2022-11-22T09:30:01.227Z,69.09
2022-11-22T09:31:19.109Z,68.93
2022-11-22T09:32:33.472Z,69.19
2022-11-22T09:33:46.030Z,69.32
2022-11-22T09:34:50.271Z,69.87
2022-11-22T09:36:34.546Z,69.92
2022-11-22T09:37:49.688Z,71.14
2022-11-22T09:38:57.401Z,71.45
2022-11-22T09:40:02.769Z,72.20
2022-11-22T09:41:17.534Z,72.28
2022-11-22T09:43:05.681Z,72.48
2022-11-22T09:44:53.506Z,73.08
2022-11-22T09:46:31.955Z,73.78
2022-11-22T09:47:54.790Z,74.46
2022-11-22T09:49:53.167Z,75.08
2022-11-22T09:51:40.244Z,74.92
2022-11-22T09:53:04.322Z,74.88
2022-11-22T09:54:23.128Z,75.50
2022-11-22T09:55:44.476Z,76.08
2022-11-22T09:56:58.004Z,75.77
2022-11-22T09:58:26.400Z,75.72
2022-11-22T09:59:40.142Z,75.30
2022-11-22T10:00:54.068Z,75.86
2022-11-22T10:02:18.603Z,76.97
2022-11-22T10:03:52.841Z,77.72
2022-11-22T10:05:08.496Z,78.07
2022-11-22T10:06:43.833Z,77.82
2022-11-22T10:07:59.590Z,78.16
2022-11-22T10:09:26.085Z,78.08
2022-11-22T10:10:42.823Z,77.79
2022-11-22T10:12:03.240Z,77.74
2022-11-22T10:13:36.034Z,78.26
2022-11-22T10:15:25.659Z,78.38
2022-11-22T10:17:20.853Z,79.80
2022-11-22T10:18:40.211Z,79.76
2022-11-22T10:19:53.848Z,79.52
2022-11-22T10:20:58.894Z,79.47
2022-11-22T10:22:02.800Z,79.69
2022-11-22T10:23:25.004Z,79.73
2022-11-22T10:24:34.756Z,79.70
2022-11-22T10:26:37.924Z,79.86
2022-11-22T10:27:47.497Z,80.27
2022-11-22T10:29:57.864Z,80.47
2022-11-22T10:31:26.876Z,80.61
2022-11-22T10:33:20.797Z,80.75
2022-11-22T10:34:49.015Z,80.88
2022-11-22T10:36:30.338Z,81.44
2022-11-22T10:38:25.972Z,81.66
2022-11-22T10:40:04.628Z,81.63
2022-11-22T10:41:48.722Z,82.01
2022-11-22T10:43:36.286Z,82.01
2022-11-22T10:44:57.604Z,82.12
2022-11-22T10:46:14.422Z,82.01
2022-11-22T10:47:44.087Z,81.97
2022-11-22T10:49:33.349Z,82.17
2022-11-22T10:50:58.048Z,82.27
2022-11-22T10:52:55.862Z,82.71
2022-11-22T10:54:27.207Z,82.49
2022-11-22T10:56:40.492Z,82.85
2022-11-22T10:58:25.278Z,82.29
2022-11-22T11:00:19.399Z,82.28
2022-11-22T11:02:20.187Z,82.70
2022-11-22T11:04:02.717Z,82.07
2022-11-22T11:05:17.408Z,82.03
2022-11-22T11:07:11.511Z,82.01
2022-11-22T11:08:39.324Z,81.94
2022-11-22T11:10:11.191Z,81.85
2022-11-22T11:11:16.556Z,81.90
2022-11-22T11:12:35.959Z,81.99
2022-11-22T11:13:51.140Z,81.87
2022-11-22T11:15:24.929Z,81.69
2022-11-22T11:16:34.351Z,82.35
2022-11-22T11:17:46.104Z,81.88
2022-11-22T11:18:57.872Z,81.43
2022-11-22T11:20:25.618Z,81.22
2022-11-22T11:21:29.640Z,81.32
2022-11-22T11:23:13.100Z,81.15
2022-11-22T11:24:17.577Z,81.28
2022-11-22T11:25:35.285Z,81.42
2022-11-22T11:26:56.128Z,81.80
2022-11-22T11:28:31.664Z,81.85
2022-11-22T11:30:03.828Z,81.15
2022-11-22T11:31:17.097Z,80.98
2022-11-22T11:32:22.214Z,80.91
2022-11-22T11:33:35.600Z,80.68
2022-11-22T11:35:14.034Z,80.96
2022-11-22T11:36:25.148Z,81.53
2022-11-22T11:37:37.279Z,81.13
2022-11-22T11:38:45.235Z,80.65
2022-11-22T11:39:48.899Z,80.96
2022-11-22T11:40:53.023Z,80.43
2022-11-22T11:42:00.408Z,80.49
2022-11-22T11:43:25.524Z,79.67
2022-11-22T11:44:36.683Z,79.96
2022-11-22T11:45:44.802Z,79.91
2022-11-22T11:46:49.278Z,79.87
2022-11-22T11:47:53.306Z,79.11
2022-11-22T11:49:18.823Z,79.35
2022-11-22T11:50:30.561Z,79.43
2022-11-22T11:51:44.326Z,79.33
2022-11-22T11:53:07.893Z,79.56
2022-11-22T11:54:26.694Z,79.34
2022-11-22T11:55:41.361Z,78.78
2022-11-22T11:56:58.552Z,79.46
2022-11-22T11:58:17.523Z,79.24
2022-11-22T11:59:41.680Z,79.57
2022-11-22T12:00:51.318Z,79.85
2022-11-22T12:02:13.540Z,79.66
2022-11-22T12:03:27.267Z,79.54
2022-11-22T12:04:45.652Z,79.34
2022-11-22T12:06:13.202Z,79.10
2022-11-22T12:07:45.187Z,79.15
2022-11-22T12:08:49.637Z,79.56
2022-11-22T12:09:57.303Z,79.41
2022-11-22T12:11:12.011Z,79.18
2022-11-22T12:12:27.688Z,79.39
2022-11-22T12:15:56.579Z,79.15
2022-11-22T12:17:15.996Z,79.28
2022-11-22T12:19:01.413Z,78.66
2022-11-22T12:20:56.323Z,78.35
2022-11-22T12:22:49.829Z,78.29
2022-11-22T12:25:55.306Z,78.11
2022-11-22T12:27:11.718Z,78.13
2022-11-22T12:28:23.510Z,78.34
2022-11-22T12:29:29.026Z,78.34
2022-11-22T12:30:41.324Z,77.98
2022-11-22T12:31:48.753Z,78.17
2022-11-22T12:33:23.202Z,78.38
2022-11-22T12:34:58.901Z,78.10
2022-11-22T12:36:20.631Z,77.96
2022-11-22T12:37:45.325Z,77.63
2022-11-22T12:38:55.165Z,77.99
2022-11-22T12:40:42.625Z,77.78
2022-11-22T12:41:50.213Z,77.57
2022-11-22T12:43:07.234Z,77.68
2022-11-22T12:44:22.938Z,77.67
2022-11-22T12:45:41.876Z,77.60
2022-11-22T12:47:23.921Z,77.56
2022-11-22T12:48:48.967Z,77.17
2022-11-22T12:50:02.893Z,77.25
2022-11-22T12:51:21.487Z,77.38
2022-11-22T12:53:02.586Z,77.12
2022-11-22T12:54:17.357Z,77.21
2022-11-22T12:55:30.615Z,77.38
2022-11-22T12:56:59.143Z,77.16
2022-11-22T12:58:13.044Z,77.03
2022-11-22T13:00:02.984Z,76.36
2022-11-22T13:01:33.366Z,76.13
2022-11-22T13:03:30.996Z,75.73
2022-11-22T13:05:22.082Z,75.66
2022-11-22T13:06:53.008Z,75.93
2022-11-22T13:08:43.137Z,75.54
2022-11-22T13:10:03.171Z,75.68
2022-11-22T13:11:28.510Z,75.49
2022-11-22T13:12:38.655Z,75.44
2022-11-22T13:14:15.170Z,75.46
2022-11-22T13:15:36.791Z,75.29
2022-11-22T13:16:41.110Z,75.27
2022-11-22T13:17:49.252Z,75.59
2022-11-22T13:19:16.192Z,75.47
2022-11-22T13:20:44.232Z,75.39
2022-11-22T13:22:20.752Z,75.45
2022-11-22T13:23:59.402Z,75.54
2022-11-22T13:25:36.597Z,75.48
2022-11-22T13:27:35.487Z,75.53
2022-11-22T13:28:52.855Z,75.73
2022-11-22T13:30:03.117Z,76.20
2022-11-22T13:31:19.402Z,76.24
2022-11-22T13:32:31.327Z,76.46
2022-11-22T13:33:40.176Z,77.23
2022-11-22T13:35:05.562Z,77.57
2022-11-22T13:36:39.656Z,78.06
2022-11-22T13:38:07.032Z,78.27
2022-11-22T13:39:20.680Z,78.85
2022-11-22T13:40:34.992Z,78.74
2022-11-22T13:41:58.064Z,79.38
2022-11-22T13:43:19.649Z,79.87
2022-11-22T13:44:36.419Z,80.09
2022-11-22T13:45:58.513Z,80.20
2022-11-22T13:47:14.693Z,80.56
2022-11-22T13:48:41.535Z,80.74
2022-11-22T13:49:49.126Z,80.73
2022-11-22T13:50:53.141Z,80.79
2022-11-22T13:52:23.360Z,81.02
2022-11-22T13:53:37.278Z,81.30
2022-11-22T13:54:48.582Z,81.29
2022-11-22T13:55:52.715Z,81.46
2022-11-22T13:57:25.725Z,81.71
2022-11-22T13:58:29.535Z,82.07
2022-11-22T13:59:33.335Z,81.95
2022-11-22T14:00:43.561Z,82.10
2022-11-22T14:01:55.444Z,82.34
2022-11-22T14:03:22.026Z,82.51
2022-11-22T14:04:27.241Z,82.64
2022-11-22T14:05:41.078Z,82.91
2022-11-22T14:07:07.459Z,82.75
2022-11-22T14:08:49.507Z,83.52
2022-11-22T14:09:58.791Z,83.28
2022-11-22T14:11:13.772Z,83.47
2022-11-22T14:12:39.758Z,83.73
2022-11-22T14:14:11.299Z,84.05
2022-11-22T14:15:40.484Z,84.01
2022-11-22T14:17:24.357Z,84.23
2022-11-22T14:19:18.956Z,84.75
2022-11-22T14:21:12.479Z,85.30
2022-11-22T14:25:48.884Z,86.26
2022-11-22T14:27:50.149Z,86.34
2022-11-22T14:29:40.906Z,86.61
2022-11-22T14:30:55.477Z,86.63
2022-11-22T14:32:40.995Z,86.73
2022-11-22T14:34:24.766Z,86.71
2022-11-22T14:35:35.875Z,86.65
2022-11-22T14:36:39.553Z,86.82
2022-11-22T14:38:09.269Z,86.73
2022-11-22T14:39:47.984Z,87.04
2022-11-22T14:40:52.228Z,87.04
2022-11-22T14:41:56.089Z,87.58
2022-11-22T14:43:05.295Z,87.76
2022-11-22T14:44:32.186Z,87.86
2022-11-22T14:46:51.105Z,88.09
2022-11-22T14:48:01.831Z,87.99
2022-11-22T14:49:44.368Z,88.19
2022-11-22T14:51:02.572Z,89.00
2022-11-22T14:52:26.161Z,88.99
2022-11-22T14:53:56.679Z,89.09
2022-11-22T14:55:19.053Z,89.28
2022-11-22T14:56:36.822Z,89.19
2022-11-22T14:57:41.489Z,89.37
2022-11-22T14:59:03.613Z,89.07
2022-11-22T15:00:25.380Z,89.19
2022-11-22T15:02:30.496Z,89.95
2022-11-22T15:09:11.860Z,90.01
2022-11-22T15:09:12.524Z,90.04
2022-11-22T15:09:16.795Z,90.34
2022-11-22T15:09:45.096Z,90.34
2022-11-22T15:11:49.220Z,90.31
2022-11-22T15:13:12.826Z,90.53
2022-11-22T15:14:57.931Z,90.28
2022-11-22T15:57:22.644Z,90.76
2022-11-22T15:58:34.581Z,90.83
2022-11-22T15:59:48.981Z,91.05
2022-11-22T16:02:33.036Z,91.28
2022-11-22T16:03:57.113Z,91.08
2022-11-22T16:06:07.518Z,91.49
2022-11-22T16:07:10.770Z,91.44
2022-11-22T16:08:16.599Z,91.08
2022-11-22T16:09:34.979Z,91.32
2022-11-22T16:10:53.263Z,91.45
2022-11-22T16:12:01.704Z,91.44
2022-11-22T16:13:28.706Z,91.33
2022-11-22T16:14:51.769Z,91.18
2022-11-22T16:16:12.267Z,90.92
2022-11-22T16:17:28.690Z,91.64
2022-11-22T16:18:34.848Z,91.59
2022-11-22T16:19:39.828Z,91.26
2022-11-22T16:21:04.827Z,91.25
2022-11-22T16:22:33.168Z,91.19
2022-11-22T16:23:39.484Z,91.34
2022-11-22T16:24:50.032Z,91.29
2022-11-22T16:26:22.059Z,91.01
2022-11-22T16:27:35.480Z,90.74
2022-11-22T16:28:56.473Z,90.81
2022-11-22T16:30:02.302Z,90.75
2022-11-22T16:31:26.282Z,90.85
2022-11-22T16:32:34.666Z,90.77
2022-11-22T16:33:44.987Z,90.99
2022-11-22T16:35:03.087Z,90.83
2022-11-22T16:36:25.642Z,90.69
2022-11-22T16:37:38.367Z,90.71
2022-11-22T16:38:45.123Z,90.85
2022-11-22T16:39:53.465Z,90.85
2022-11-22T16:41:24.611Z,90.67